createdAt,value
2022-08-09T00:00:04.941Z,1.23
2022-08-09T00:02:34.938Z,1.90
2022-08-09T00:06:15.383Z,1.27
2022-08-09T00:07:49.135Z,1.55
2022-08-09T00:10:17.969Z,1.60
2022-08-09T00:12:51.714Z,1.87
2022-08-09T00:15:26.174Z,1.88
2022-08-09T00:18:05.885Z,1.48
2022-08-09T00:20:38.424Z,1.70
2022-08-09T00:23:54.985Z,1.40
2022-08-09T00:25:56.917Z,1.53
2022-08-09T00:28:27.172Z,1.52
2022-08-09T00:30:54.362Z,1.50
2022-08-09T00:33:49.003Z,1.50
2022-08-09T00:36:09.553Z,1.73
2022-08-09T00:38:36.328Z,1.50
2022-08-09T00:41:03.328Z,1.33
2022-08-09T00:44:20.681Z,1.17
2022-08-09T00:46:45.411Z,0.93
2022-08-09T00:49:10.986Z,1.30
2022-08-09T00:51:42.672Z,1.70
2022-08-09T00:54:31.367Z,1.65
2022-08-09T00:57:02.194Z,1.13
2022-08-09T00:59:45.940Z,1.52
2022-08-09T01:02:18.537Z,1.20
2022-08-09T01:04:56.553Z,1.30
2022-08-09T01:07:37.705Z,1.27
2022-08-09T01:10:10.467Z,1.25
2022-08-09T01:12:42.840Z,1.30
2022-08-09T01:15:17.016Z,1.52
2022-08-09T01:17:49.406Z,1.30
2022-08-09T01:20:29.049Z,1.63
2022-08-09T01:24:01.187Z,1.60
2022-08-09T01:26:12.839Z,1.20
2022-08-09T01:28:45.463Z,1.50
2022-08-09T01:32:29.618Z,1.50
2022-08-09T01:34:04.298Z,1.25
2022-08-09T01:36:38.617Z,1.40
2022-08-09T01:39:06.809Z,1.50
2022-08-09T01:41:35.994Z,1.23
2022-08-09T01:44:05.722Z,1.60
2022-08-09T01:46:37.930Z,1.50
2022-08-09T01:49:10.465Z,1.25
2022-08-09T01:51:44.399Z,1.70
2022-08-09T01:54:21.326Z,1.40
2022-08-09T01:56:51.753Z,1.40
2022-08-09T01:59:23.177Z,1.10
2022-08-09T02:01:58.136Z,1.40
2022-08-09T02:04:28.321Z,1.67
2022-08-09T02:06:59.102Z,1.38
2022-08-09T02:09:41.956Z,1.40
2022-08-09T02:12:17.958Z,1.30
2022-08-09T02:14:52.048Z,1.17
2022-08-09T02:18:01.577Z,1.40
2022-08-09T02:20:08.750Z,1.35
2022-08-09T02:22:39.719Z,1.60
2022-08-09T02:25:15.121Z,1.73
2022-08-09T02:28:00.479Z,1.50
2022-08-09T02:30:37.522Z,1.60
2022-08-09T02:33:07.988Z,1.48
2022-08-09T02:36:03.031Z,2.00
2022-08-09T02:38:32.603Z,1.63
2022-08-09T02:41:08.377Z,1.60
2022-08-09T02:43:47.796Z,1.65
2022-08-09T02:46:27.453Z,1.50
2022-08-09T02:48:56.495Z,1.60
2022-08-09T02:51:26.507Z,1.60
2022-08-09T02:54:00.765Z,1.55
2022-08-09T02:56:29.703Z,1.70
2022-08-09T02:58:58.105Z,1.67
2022-08-09T03:01:29.600Z,1.90
2022-08-09T03:04:17.981Z,1.77
2022-08-09T03:06:48.696Z,1.60
2022-08-09T03:09:17.706Z,1.88
2022-08-09T03:12:09.660Z,1.95
2022-08-09T03:14:32.862Z,2.13
2022-08-09T03:17:02.149Z,2.05
2022-08-09T03:19:58.053Z,1.80
2022-08-09T03:22:25.479Z,1.73
2022-08-09T03:25:21.853Z,2.03
2022-08-09T03:27:48.474Z,2.00
2022-08-09T03:30:29.323Z,1.70
2022-08-09T03:33:05.795Z,1.80
2022-08-09T03:36:12.429Z,2.13
2022-08-09T03:38:30.917Z,1.92
2022-08-09T03:40:58.149Z,1.87
2022-08-09T03:43:25.153Z,2.00
2022-08-09T03:46:05.365Z,1.60
2022-08-09T03:48:51.465Z,2.10
2022-08-09T03:51:55.509Z,2.25
2022-08-09T03:54:10.991Z,1.70
2022-08-09T03:56:41.189Z,1.88
2022-08-09T03:59:17.089Z,2.00
2022-08-09T04:01:49.483Z,2.20
2022-08-09T04:04:19.096Z,2.10
2022-08-09T04:06:48.794Z,2.43
2022-08-09T04:09:47.636Z,2.22
2022-08-09T04:12:32.519Z,1.90
2022-08-09T04:15:02.009Z,2.20
2022-08-09T04:17:38.122Z,2.10
2022-08-09T04:20:09.048Z,1.70
2022-08-09T04:22:41.102Z,1.65
2022-08-09T04:25:11.167Z,1.90
2022-08-09T04:27:38.183Z,1.80
2022-08-09T04:30:11.355Z,1.77
2022-08-09T04:32:39.943Z,2.00
2022-08-09T04:35:15.366Z,1.85
2022-08-09T04:37:46.398Z,1.80
2022-08-09T04:40:19.227Z,1.67
2022-08-09T04:42:56.768Z,1.65
2022-08-09T04:45:24.053Z,1.73
2022-08-09T04:47:59.416Z,2.15
2022-08-09T04:50:31.856Z,1.90
2022-08-09T04:53:02.491Z,1.70
2022-08-09T04:55:32.496Z,1.83
2022-08-09T04:58:09.258Z,2.00
2022-08-09T05:00:36.887Z,1.48
2022-08-09T05:03:30.541Z,1.70
2022-08-09T05:06:06.425Z,1.90
2022-08-09T05:08:33.740Z,1.73
2022-08-09T05:11:01.145Z,2.13
2022-08-09T05:13:33.106Z,1.80
2022-08-09T05:16:00.933Z,2.08
2022-08-09T05:18:50.350Z,2.08
2022-08-09T05:21:22.756Z,2.42
2022-08-09T05:23:59.768Z,2.43
2022-08-09T05:26:36.004Z,2.75
2022-08-09T05:29:17.737Z,2.17
2022-08-09T05:31:56.265Z,2.30
2022-08-09T05:34:30.162Z,2.08
2022-08-09T05:37:01.810Z,2.40
2022-08-09T05:39:36.170Z,2.20
2022-08-09T05:42:09.971Z,2.45
2022-08-09T05:44:50.619Z,2.85
2022-08-09T05:47:21.505Z,2.42
2022-08-09T05:50:30.834Z,2.27
2022-08-09T05:52:38.810Z,2.53
2022-08-09T05:55:08.681Z,2.60
2022-08-09T05:57:50.839Z,2.58
2022-08-09T06:00:30.665Z,2.40
2022-08-09T06:03:02.246Z,2.70
2022-08-09T06:05:50.099Z,2.63
2022-08-09T06:08:24.200Z,2.33
2022-08-09T06:10:52.813Z,2.78
2022-08-09T06:13:20.482Z,2.38
2022-08-09T06:15:51.687Z,2.40
2022-08-09T06:18:20.419Z,2.58
2022-08-09T06:20:54.839Z,2.85
2022-08-09T06:23:58.598Z,2.50
2022-08-09T06:26:12.317Z,2.58
2022-08-09T06:28:39.206Z,2.77
2022-08-09T06:31:10.797Z,2.75
2022-08-09T06:33:41.032Z,2.38
2022-08-09T06:36:11.862Z,2.00
2022-08-09T06:38:50.214Z,2.17
2022-08-09T06:41:19.126Z,2.33
2022-08-09T06:43:47.923Z,1.92
2022-08-09T06:46:39.640Z,2.00
2022-08-09T06:49:01.723Z,1.70
2022-08-09T06:51:28.403Z,2.10
2022-08-09T06:54:00.753Z,1.83
2022-08-09T06:56:30.618Z,1.90
2022-08-09T07:00:52.112Z,2.00
2022-08-09T07:01:54.074Z,2.05
2022-08-09T07:04:24.997Z,2.13
2022-08-09T07:07:00.462Z,2.17
2022-08-09T07:09:57.064Z,2.00
2022-08-09T07:12:18.148Z,2.20
2022-08-09T07:14:45.373Z,2.72
2022-08-09T07:17:17.574Z,2.58
2022-08-09T07:19:44.862Z,2.70
2022-08-09T07:22:15.575Z,2.53
2022-08-09T07:24:49.671Z,2.33
2022-08-09T07:27:33.507Z,2.25
2022-08-09T07:30:02.482Z,2.72
2022-08-09T07:32:36.742Z,2.80
2022-08-09T07:35:10.345Z,2.47
2022-08-09T07:37:44.241Z,2.30
2022-08-09T07:40:17.062Z,2.45
2022-08-09T07:42:50.073Z,2.80
2022-08-09T07:45:23.604Z,2.70
2022-08-09T07:48:04.995Z,2.55
2022-08-09T07:50:34.830Z,2.45
2022-08-09T07:53:06.723Z,2.60
2022-08-09T07:55:41.391Z,2.67
2022-08-09T07:58:26.204Z,2.30
2022-08-09T08:00:59.165Z,2.33
2022-08-09T08:03:33.589Z,1.98
2022-08-09T08:06:03.847Z,2.08
2022-08-09T08:09:00.348Z,1.90
2022-08-09T08:12:09.186Z,1.90
2022-08-09T08:14:06.312Z,1.90
2022-08-09T08:16:34.554Z,1.58
2022-08-09T08:19:03.083Z,1.90
2022-08-09T08:21:30.011Z,1.80
2022-08-09T08:23:56.625Z,1.63
2022-08-09T08:26:26.622Z,1.95
2022-08-09T08:29:08.957Z,1.45
2022-08-09T08:32:04.555Z,1.70
2022-08-09T08:34:27.942Z,1.90
2022-08-09T08:36:55.070Z,2.90
2022-08-09T08:39:22.329Z,2.10
2022-08-09T08:41:52.328Z,1.67
2022-08-09T08:44:27.175Z,1.88
2022-08-09T08:47:02.818Z,1.98
2022-08-09T08:49:46.361Z,1.70
2022-08-09T08:55:10.845Z,1.98
2022-08-09T08:57:42.139Z,1.95
2022-08-09T09:00:16.976Z,2.10
2022-08-09T09:02:52.946Z,1.90
2022-08-09T09:05:57.533Z,1.98
2022-08-09T09:08:29.270Z,1.90
2022-08-09T09:11:00.447Z,1.88
2022-08-09T09:13:41.925Z,2.13
2022-08-09T09:16:15.967Z,2.10
2022-08-09T09:18:48.128Z,1.70
2022-08-09T09:21:25.214Z,2.08
2022-08-09T09:23:57.320Z,2.00
2022-08-09T09:26:26.084Z,1.98
2022-08-09T09:29:04.192Z,2.00
2022-08-09T09:32:03.807Z,2.40
2022-08-09T09:34:25.485Z,2.00
2022-08-09T09:36:56.802Z,2.20
2022-08-09T09:39:42.906Z,2.10
2022-08-09T09:42:22.526Z,2.20
2022-08-09T09:44:57.390Z,2.15
2022-08-09T09:47:24.425Z,2.00
2022-08-09T09:50:14.642Z,2.10
2022-08-09T09:52:54.064Z,1.95
2022-08-09T09:55:27.890Z,1.93
2022-08-09T09:58:17.217Z,2.17
2022-08-09T10:00:55.149Z,2.10
2022-08-09T10:03:58.065Z,2.40
2022-08-09T10:06:32.163Z,2.40
2022-08-09T10:09:01.291Z,2.40
2022-08-09T10:12:04.509Z,2.22
2022-08-09T10:14:33.038Z,1.90
2022-08-09T10:17:40.589Z,2.30
2022-08-09T10:19:57.624Z,2.17
2022-08-09T10:22:31.132Z,1.90
2022-08-09T10:24:59.848Z,1.83
2022-08-09T10:27:44.933Z,2.00
2022-08-09T10:31:21.650Z,1.77
2022-08-09T10:33:04.060Z,2.10
2022-08-09T10:35:35.273Z,2.07
2022-08-09T10:38:02.821Z,1.88
2022-08-09T10:40:35.153Z,1.85
2022-08-09T10:43:08.113Z,2.17
2022-08-09T10:45:49.402Z,2.00
2022-08-09T10:48:32.329Z,2.07
2022-08-09T10:51:09.720Z,1.90
2022-08-09T10:53:56.832Z,2.17
2022-08-09T10:56:25.461Z,2.10
2022-08-09T10:58:54.347Z,2.00
2022-08-09T11:03:15.455Z,1.80
2022-08-09T11:04:33.959Z,1.77
2022-08-09T11:07:27.308Z,1.85
2022-08-09T11:10:14.032Z,1.77
2022-08-09T11:13:02.435Z,1.88
2022-08-09T11:15:38.447Z,1.83
2022-08-09T11:18:41.927Z,1.92
2022-08-09T11:21:44.916Z,1.80
2022-08-09T11:24:25.664Z,1.77
2022-08-09T11:26:56.361Z,1.70
2022-08-09T11:30:05.222Z,2.10
2022-08-09T11:32:44.142Z,1.95
2022-08-09T11:35:17.277Z,2.08
2022-08-09T11:37:49.843Z,1.73
2022-08-09T11:40:28.541Z,2.03
2022-08-09T11:42:57.893Z,2.10
2022-08-09T11:45:42.572Z,2.08
2022-08-09T11:48:26.770Z,1.90
2022-08-09T11:51:38.053Z,1.90
2022-08-09T11:54:11.487Z,1.42
2022-08-09T11:56:48.019Z,2.00
2022-08-09T11:59:30.134Z,1.65
2022-08-09T12:02:16.246Z,1.75
2022-08-09T12:04:45.828Z,2.00
2022-08-09T12:07:14.300Z,1.90
2022-08-09T12:09:50.213Z,1.77
2022-08-09T12:12:28.540Z,1.80
2022-08-09T12:15:48.726Z,1.55
2022-08-09T12:18:17.995Z,1.60
2022-08-09T12:20:56.832Z,1.77
2022-08-09T12:23:57.939Z,1.43
2022-08-09T12:26:19.719Z,1.85
2022-08-09T12:29:00.100Z,1.70
2022-08-09T12:32:01.729Z,1.63
2022-08-09T12:34:33.269Z,2.00
2022-08-09T12:37:21.807Z,1.60
2022-08-09T12:40:00.075Z,1.75
2022-08-09T12:42:27.849Z,2.72
2022-08-09T12:44:59.505Z,1.90
2022-08-09T12:47:28.012Z,1.60
2022-08-09T12:50:04.644Z,2.00
2022-08-09T12:52:58.508Z,1.80
2022-08-09T12:56:14.284Z,1.80
2022-08-09T12:58:27.914Z,1.70
2022-08-09T13:00:57.632Z,1.88
2022-08-09T13:03:52.825Z,1.80
2022-08-09T13:06:34.274Z,2.10
2022-08-09T13:09:06.188Z,2.20
2022-08-09T13:11:35.482Z,1.80
2022-08-09T13:14:43.614Z,1.92
2022-08-09T13:16:59.055Z,1.87
2022-08-09T13:20:09.095Z,1.90
2022-08-09T13:22:37.084Z,1.88
2022-08-09T13:25:05.663Z,1.63
2022-08-09T13:27:39.999Z,1.70
2022-08-09T13:31:11.632Z,2.20
2022-08-09T13:33:05.434Z,1.80
2022-08-09T13:35:34.153Z,2.05
2022-08-09T13:38:02.393Z,1.90
2022-08-09T13:41:51.144Z,1.92
2022-08-09T13:43:16.678Z,2.00
2022-08-09T13:46:44.533Z,2.08
2022-08-09T13:48:33.966Z,1.88
2022-08-09T13:51:00.597Z,1.63
2022-08-09T13:53:41.370Z,2.00
2022-08-09T13:56:11.083Z,1.80
2022-08-09T13:58:41.670Z,1.63
2022-08-09T14:01:13.596Z,1.73
2022-08-09T14:04:03.338Z,1.98
2022-08-09T14:06:31.981Z,1.70
2022-08-09T14:09:01.881Z,1.90
2022-08-09T14:11:29.182Z,1.65
2022-08-09T14:14:23.613Z,1.63
2022-08-09T14:16:42.542Z,1.90
2022-08-09T14:19:11.012Z,1.65
2022-08-09T14:21:37.722Z,1.80
2022-08-09T14:24:18.280Z,1.92
2022-08-09T14:26:47.192Z,1.67
2022-08-09T14:30:03.940Z,2.00
2022-08-09T14:32:11.159Z,2.00
2022-08-09T14:34:43.483Z,1.80
2022-08-09T14:37:11.545Z,2.00
2022-08-09T14:39:46.575Z,1.85
2022-08-09T14:42:30.655Z,1.95
2022-08-09T14:45:01.249Z,2.20
2022-08-09T14:47:44.695Z,1.73
2022-08-09T14:50:16.505Z,1.63
2022-08-09T14:52:49.973Z,2.00
2022-08-09T14:55:22.070Z,2.00
2022-08-09T14:57:49.255Z,2.08
2022-08-09T15:00:16.852Z,1.60
2022-08-09T15:02:47.260Z,2.00
2022-08-09T15:05:16.975Z,1.80
2022-08-09T15:07:45.615Z,1.77
2022-08-09T15:10:24.862Z,1.80
2022-08-09T15:12:51.878Z,1.60
2022-08-09T15:15:18.724Z,1.70
2022-08-09T15:17:52.131Z,1.90
2022-08-09T15:21:58.959Z,1.90
2022-08-09T15:24:00.752Z,1.70
2022-08-09T15:25:55.858Z,2.03
2022-08-09T15:28:33.339Z,1.92
2022-08-09T15:31:11.677Z,2.35
2022-08-09T15:34:15.544Z,2.17
2022-08-09T15:36:32.738Z,2.03
2022-08-09T15:39:00.103Z,1.73
2022-08-09T15:41:32.095Z,1.60
2022-08-09T15:43:59.778Z,1.70
2022-08-09T15:46:33.613Z,1.98
2022-08-09T15:49:22.975Z,1.95
2022-08-09T15:52:04.918Z,2.03
2022-08-09T15:54:44.267Z,1.85
2022-08-09T15:57:11.266Z,1.67
2022-08-09T15:59:38.734Z,1.83
2022-08-09T16:02:05.621Z,1.80
2022-08-09T16:04:34.219Z,1.80
2022-08-09T16:07:02.499Z,1.80
2022-08-09T16:09:32.551Z,1.85
2022-08-09T16:12:15.901Z,1.77
2022-08-09T16:14:42.717Z,1.75
2022-08-09T16:17:09.460Z,1.60
2022-08-09T16:19:36.725Z,1.58
2022-08-09T16:22:32.701Z,1.73
2022-08-09T16:25:01.562Z,1.80
2022-08-09T16:27:29.898Z,1.80
2022-08-09T16:30:44.425Z,2.07
2022-08-09T16:33:11.849Z,1.90
2022-08-09T16:35:57.168Z,1.80
2022-08-09T16:38:29.701Z,1.60
2022-08-09T16:40:56.661Z,2.13
2022-08-09T16:43:24.561Z,1.70
2022-08-09T16:45:54.038Z,2.10
2022-08-09T16:48:39.568Z,1.73
2022-08-09T16:51:13.521Z,2.03
2022-08-09T16:54:08.856Z,1.70
2022-08-09T16:56:30.680Z,1.43
2022-08-09T16:58:58.478Z,1.75
2022-08-09T17:01:33.911Z,1.90
2022-08-09T17:04:01.191Z,1.73
2022-08-09T17:06:31.473Z,2.08
2022-08-09T17:09:12.204Z,1.60
2022-08-09T17:11:48.175Z,1.70
2022-08-09T17:14:27.496Z,1.80
2022-08-09T17:16:59.924Z,1.63
2022-08-09T17:19:46.373Z,1.70
2022-08-09T17:22:14.744Z,1.80
2022-08-09T17:24:47.875Z,1.67
2022-08-09T17:27:21.787Z,1.90
2022-08-09T17:29:48.473Z,1.80
2022-08-09T17:32:20.308Z,1.90
2022-08-09T17:35:01.029Z,1.70
2022-08-09T17:38:02.098Z,1.60
2022-08-09T17:40:25.998Z,1.58
2022-08-09T17:42:55.533Z,1.73
2022-08-09T17:45:27.084Z,2.00
2022-08-09T17:47:54.847Z,1.75
2022-08-09T17:50:36.291Z,1.75
2022-08-09T17:53:04.737Z,1.70
2022-08-09T17:55:48.816Z,1.80
2022-08-09T17:58:17.862Z,1.80
2022-08-09T18:00:48.045Z,2.17
2022-08-09T18:03:15.226Z,1.75
2022-08-09T18:05:45.011Z,1.52
2022-08-09T18:08:19.590Z,1.50
2022-08-09T18:11:00.868Z,1.67
2022-08-09T18:13:39.292Z,1.55
2022-08-09T18:16:16.465Z,1.50
2022-08-09T18:18:49.141Z,1.52
2022-08-09T18:21:23.100Z,1.80
2022-08-09T18:24:09.886Z,1.80
2022-08-09T18:26:46.706Z,1.40
2022-08-09T18:30:36.282Z,2.03
2022-08-09T18:32:03.336Z,1.73
2022-08-09T18:34:30.100Z,1.60
2022-08-09T18:36:56.953Z,1.70
2022-08-09T18:39:23.636Z,1.70
2022-08-09T18:41:53.911Z,1.50
2022-08-09T18:44:22.863Z,1.45
2022-08-09T18:47:07.947Z,1.40
2022-08-09T18:49:41.811Z,1.60
2022-08-09T18:52:11.870Z,1.95
2022-08-09T18:54:38.830Z,1.80
2022-08-09T18:57:07.007Z,1.60
2022-08-09T18:59:48.543Z,1.50
2022-08-09T19:02:16.874Z,1.93
2022-08-09T19:04:48.121Z,1.88
2022-08-09T19:07:31.608Z,1.70
2022-08-09T19:10:14.020Z,1.45
2022-08-09T19:12:50.019Z,1.40
2022-08-09T19:15:22.373Z,1.73
2022-08-09T19:17:56.465Z,1.63
2022-08-09T19:20:25.441Z,1.70
2022-08-09T19:22:54.738Z,1.40
2022-08-09T19:25:41.971Z,1.38
2022-08-09T19:28:13.146Z,1.47
2022-08-09T19:30:44.682Z,1.90
2022-08-09T19:33:19.333Z,1.50
2022-08-09T19:35:57.199Z,1.60
2022-08-09T19:38:25.785Z,1.70
2022-08-09T19:40:52.938Z,1.10
2022-08-09T19:44:00.807Z,1.60
2022-08-09T19:46:15.034Z,1.90
2022-08-09T19:49:01.787Z,1.63
2022-08-09T19:51:31.007Z,1.95
2022-08-09T19:53:58.032Z,1.50
2022-08-09T19:56:28.525Z,1.65
2022-08-09T19:59:40.186Z,1.48
2022-08-09T20:02:03.414Z,1.75
2022-08-09T20:04:37.374Z,1.60
2022-08-09T20:07:10.631Z,1.67
2022-08-09T20:09:46.046Z,1.70
2022-08-09T20:12:27.493Z,1.80
2022-08-09T20:15:00.985Z,1.45
2022-08-09T20:17:48.279Z,1.42
2022-08-09T20:20:17.908Z,1.80
2022-08-09T20:22:46.515Z,1.30
2022-08-09T20:25:13.353Z,1.60
2022-08-09T20:27:49.608Z,2.08
2022-08-09T20:30:21.630Z,1.60
2022-08-09T20:32:52.517Z,1.80
2022-08-09T20:35:19.736Z,1.90
2022-08-09T20:38:18.609Z,1.75
2022-08-09T20:40:33.245Z,1.70
2022-08-09T20:43:18.273Z,1.73
2022-08-09T20:45:57.101Z,1.80
2022-08-09T20:48:30.625Z,1.80
2022-08-09T20:50:58.154Z,1.90
2022-08-09T20:53:37.319Z,1.92
2022-08-09T20:56:08.738Z,2.08
2022-08-09T20:58:36.117Z,2.17
2022-08-09T21:01:32.615Z,2.00
2022-08-09T21:04:08.051Z,1.95
2022-08-09T21:06:42.842Z,1.63
2022-08-09T21:09:11.722Z,1.95
2022-08-09T21:14:31.207Z,1.92
2022-08-09T21:17:00.572Z,2.10
2022-08-09T21:20:18.437Z,1.63
2022-08-09T21:22:35.492Z,1.67
2022-08-09T21:25:00.732Z,1.60
2022-08-09T21:27:50.970Z,1.55
2022-08-09T21:30:14.119Z,1.80
2022-08-09T21:32:46.886Z,1.60
2022-08-09T21:35:13.736Z,1.83
2022-08-09T21:37:47.289Z,2.10
2022-08-09T21:40:30.247Z,1.70
2022-08-09T21:42:57.801Z,1.80
2022-08-09T21:45:25.486Z,1.90
2022-08-09T21:47:53.645Z,1.85
2022-08-09T21:50:35.782Z,1.90
2022-08-09T21:53:07.033Z,2.00
2022-08-09T21:55:50.687Z,2.00
2022-08-09T21:58:17.336Z,2.10
2022-08-09T22:00:44.107Z,1.80
2022-08-09T22:03:19.566Z,2.10
2022-08-09T22:05:52.166Z,1.70
2022-08-09T22:08:19.001Z,1.80
2022-08-09T22:11:05.129Z,2.00
2022-08-09T22:13:36.903Z,2.05
2022-08-09T22:16:07.472Z,2.30
2022-08-09T22:18:37.365Z,1.70
2022-08-09T22:21:09.979Z,1.80
2022-08-09T22:23:59.473Z,2.20
2022-08-09T22:26:35.104Z,2.03
2022-08-09T22:29:06.918Z,1.83
2022-08-09T22:31:34.755Z,2.00
2022-08-09T22:34:03.123Z,1.98
2022-08-09T22:36:45.726Z,2.00
2022-08-09T22:39:47.101Z,1.95
2022-08-09T22:42:00.372Z,2.10
2022-08-09T22:44:29.817Z,1.83
2022-08-09T22:48:15.880Z,2.00
2022-08-09T22:49:51.914Z,1.98
2022-08-09T22:52:19.667Z,2.53
2022-08-09T22:54:47.082Z,1.93
2022-08-09T22:57:14.406Z,2.08
2022-08-09T22:59:56.092Z,1.90
2022-08-09T23:02:25.857Z,2.03
2022-08-09T23:04:57.029Z,1.90
2022-08-09T23:08:22.592Z,1.97
2022-08-09T23:10:11.715Z,1.77
2022-08-09T23:12:38.384Z,1.58
2022-08-09T23:15:05.804Z,2.03
2022-08-09T23:17:32.620Z,1.80
2022-08-09T23:20:07.993Z,2.00
2022-08-09T23:22:35.719Z,2.30
2022-08-09T23:25:02.629Z,2.00
2022-08-09T23:27:29.257Z,2.20
2022-08-09T23:29:57.459Z,2.13
2022-08-09T23:32:24.058Z,2.70
2022-08-09T23:34:50.663Z,1.83
2022-08-09T23:37:22.776Z,2.22
2022-08-09T23:40:01.610Z,2.00
2022-08-09T23:42:28.470Z,1.75
2022-08-09T23:44:56.529Z,1.93
2022-08-09T23:47:23.174Z,2.17
2022-08-09T23:49:49.961Z,1.70
2022-08-09T23:52:17.957Z,1.67
2022-08-09T23:54:50.498Z,1.90
2022-08-09T23:57:18.604Z,2.13
2022-08-09T23:59:48.646Z,2.10
